Terminal Aerodrome Forecast
Issued by NWS

Home | Current Version | Previous Version | Text Only | Print | Product List | Glossary Off
Versions: 1 2 3 4 5 6 7 8 9 10 11 12 13 14

000
FTUS43 KTOP 281100
TAFMHK
TAF
KMHK 281121Z 2812/2912 01005KT P6SM FEW100
     FM281500 01011KT P6SM FEW040 SCT100
     FM290400 02002KT P6SM BKN060=

USA.gov is the U.S. government's official web portal to all federal, state and local government web resources and services.